Time;durP1;ratioP1;P1;durP2;ratioP2;P2;SDS_P1;SDS_P2;PMS_P1;PMS_P2;Temp;Humidity;BMP_temperature;BMP_pressure;BME280_temperature;BME280_humidity;BME280_pressure;Samples;Min_cycle;Max_cycle;Signal;HPM_P1;HPM_P2
2022/01/08 00:00:27;;;;;;;1.50;1.32;;;;;;;7.23;42.13;102574.76;1597633;88;21095;-52
2022/01/08 00:02:54;;;;;;;2.77;1.87;;;;;;;7.23;42.16;102566.14;1594966;89;21110;-52
2022/01/08 00:05:21;;;;;;;1.60;1.35;;;;;;;7.23;42.16;102575.20;1609534;88;21065;-52
2022/01/08 00:07:48;;;;;;;2.30;1.50;;;;;;;7.23;42.43;102569.58;1594919;89;21612;-52
2022/01/08 00:10:14;;;;;;;3.10;1.67;;;;;;;7.23;42.58;102567.44;1599756;88;21540;-52
2022/01/08 00:12:42;;;;;;;1.90;1.70;;;;;;;7.23;42.59;102570.88;1597944;87;21079;-52
2022/01/08 00:15:08;;;;;;;2.25;1.77;;;;;;;7.23;42.75;102571.32;1611753;88;21560;-52
2022/01/08 00:17:35;;;;;;;1.60;1.50;;;;;;;7.22;43.17;102571.73;1615789;87;21129;-52
2022/01/08 00:20:05;;;;;;;2.22;1.95;;;;;;;7.22;43.24;102578.62;1601821;87;21130;-52
2022/01/08 00:22:31;;;;;;;1.80;1.50;;;;;;;7.22;43.20;102578.20;1599491;88;21119;-52
2022/01/08 00:24:58;;;;;;;2.33;1.70;;;;;;;7.25;43.25;102578.70;1595623;88;21129;-53
2022/01/08 00:27:24;;;;;;;7.78;1.90;;;;;;;7.27;43.02;102577.86;1603772;88;21075;-52
2022/01/08 00:29:51;;;;;;;2.70;1.75;;;;;;;7.29;42.96;102570.15;1596187;88;21131;-52
2022/01/08 00:32:17;;;;;;;2.27;2.02;;;;;;;7.32;42.84;102572.37;1598593;88;21093;-52
2022/01/08 00:34:44;;;;;;;2.00;1.65;;;;;;;7.33;42.91;102566.37;1596418;89;21535;-52
2022/01/08 00:37:10;;;;;;;2.98;1.60;;;;;;;7.31;43.05;102561.99;1598546;88;21086;-52
2022/01/08 00:39:37;;;;;;;2.08;1.50;;;;;;;7.32;42.83;102558.55;1604788;88;21610;-53
2022/01/08 00:42:04;;;;;;;2.05;1.55;;;;;;;7.32;42.67;102559.84;1598120;88;21622;-53
2022/01/08 00:44:30;;;;;;;3.22;1.95;;;;;;;7.32;42.89;102554.66;1606928;88;21540;-52
2022/01/08 00:46:57;;;;;;;1.75;1.47;;;;;;;7.33;43.12;102543.47;1596263;88;21044;-54
2022/01/08 00:49:25;;;;;;;2.77;1.82;;;;;;;7.32;42.99;102541.71;1600090;87;21065;-53
2022/01/08 00:51:51;;;;;;;2.70;1.80;;;;;;;7.31;43.09;102545.16;1628249;83;21526;-52
2022/01/08 00:54:18;;;;;;;2.95;2.12;;;;;;;7.31;43.38;102547.75;1692668;82;21534;-52
2022/01/08 00:56:45;;;;;;;2.02;1.90;;;;;;;7.32;43.37;102541.71;1674152;83;21125;-53
2022/01/08 00:59:13;;;;;;;2.62;2.00;;;;;;;7.33;43.35;102543.47;1688437;83;21028;-52
2022/01/08 01:01:40;;;;;;;3.40;2.25;;;;;;;7.32;43.17;102539.13;1701815;83;20999;-54
2022/01/08 01:04:06;;;;;;;1.90;1.67;;;;;;;7.33;43.07;102534.00;1683077;83;20963;-52
2022/01/08 01:06:32;;;;;;;3.50;2.00;;;;;;;7.33;42.98;102540.88;1697086;83;21069;-52
2022/01/08 01:08:59;;;;;;;3.27;2.35;;;;;;;7.34;43.03;102540.91;1685712;84;21042;-52
2022/01/08 01:11:25;;;;;;;2.50;2.12;;;;;;;7.35;42.93;102540.49;1704210;83;21028;-52
2022/01/08 01:13:52;;;;;;;2.77;2.17;;;;;;;7.37;43.03;102541.39;1697052;83;21011;-52
2022/01/08 01:16:19;;;;;;;2.30;1.80;;;;;;;7.38;43.13;102541.83;1696401;83;21054;-52
2022/01/08 01:18:46;;;;;;;2.55;2.25;;;;;;;7.40;43.33;102545.32;1694909;82;21051;-52
2022/01/08 01:21:13;;;;;;;4.28;2.27;;;;;;;7.41;43.32;102539.31;1692089;83;21026;-52
2022/01/08 01:23:42;;;;;;;2.05;1.82;;;;;;;7.42;43.25;102533.72;1682940;84;21078;-52
2022/01/08 01:26:13;;;;;;;3.33;1.85;;;;;;;7.40;43.19;102537.14;1703617;83;21046;-52
2022/01/08 01:28:45;;;;;;;1.87;1.67;;;;;;;7.41;43.49;102534.14;1694438;83;21160;-51
2022/01/08 01:47:02;;;;;;;2.52;2.02;;;;;;;7.42;43.91;102508.67;1656786;85;21133;-51
2022/01/08 01:49:34;;;;;;;3.10;1.75;;;;;;;7.42;43.91;102509.12;1659262;85;21613;-51
2022/01/08 01:52:01;;;;;;;2.35;1.90;;;;;;;7.43;43.52;102511.73;1647943;85;21091;-51
2022/01/08 01:54:28;;;;;;;2.12;1.85;;;;;;;7.43;43.35;102512.14;1637482;85;21106;-51
2022/01/08 01:59:26;;;;;;;4.37;1.98;;;;;;;7.44;43.31;102505.69;1595106;89;21105;-52
2022/01/08 02:01:53;;;;;;;1.72;1.62;;;;;;;7.44;43.06;102499.21;1602751;88;21269;-51
2022/01/08 02:04:20;;;;;;;3.08;1.92;;;;;;;7.42;43.01;102493.13;1596043;89;21125;-51
2022/01/08 02:06:47;;;;;;;3.95;1.95;;;;;;;7.44;43.33;102495.33;1615694;88;21079;-51
2022/01/08 02:09:13;;;;;;;2.35;1.82;;;;;;;7.46;43.29;102495.38;1584724;89;21122;-51
2022/01/08 02:12:04;;;;;;;3.65;1.80;;;;;;;7.47;43.27;102494.52;1616786;88;21062;-51
2022/01/08 02:14:35;;;;;;;2.08;1.55;;;;;;;7.45;43.34;102489.31;1617081;87;21085;-51
2022/01/08 02:17:04;;;;;;;2.15;1.80;;;;;;;7.44;42.91;102492.73;1619142;88;21554;-51
2022/01/08 02:19:31;;;;;;;3.35;1.98;;;;;;;7.44;42.90;102490.15;1615232;87;21081;-53
2022/01/08 02:22:00;;;;;;;3.30;1.75;;;;;;;7.42;43.03;102489.25;1614064;88;21027;-52
2022/01/08 02:24:27;;;;;;;2.80;2.35;;;;;;;7.41;43.60;102484.92;1603412;89;21026;-51
2022/01/08 02:26:54;;;;;;;1.80;1.70;;;;;;;7.40;43.94;102477.58;1608545;89;21125;-51
2022/01/08 02:29:22;;;;;;;1.92;1.50;;;;;;;7.41;43.97;102469.39;1600671;88;21091;-51
2022/01/08 02:32:03;;;;;;;3.27;1.80;;;;;;;7.41;43.86;102464.21;1609941;87;21949;-51
2022/01/08 02:34:30;;;;;;;;;;;;;;;7.41;43.84;102465.50;1617402;88;21155;-51
2022/01/08 02:36:57;;;;;;;3.47;1.85;;;;;;;7.38;43.39;102461.13;1618655;88;20433;-51
2022/01/08 02:39:24;;;;;;;2.10;1.82;;;;;;;7.37;43.86;102459.82;1600140;88;21070;-51
2022/01/08 02:41:56;;;;;;;1.90;1.50;;;;;;;7.36;43.99;102451.58;1613810;87;21050;-51
2022/01/08 02:44:20;;;;;;;3.12;1.75;;;;;;;7.35;44.30;102455.03;1602729;89;21081;-51
2022/01/08 02:46:47;;;;;;;3.42;1.72;;;;;;;7.33;44.14;102458.90;1594699;89;21061;-51
2022/01/08 02:49:14;;;;;;;3.92;1.77;;;;;;;7.32;44.18;102456.26;1626080;87;21054;-51
2022/01/08 02:51:40;;;;;;;2.70;1.45;;;;;;;7.31;44.14;102459.71;1637777;87;21904;-51
2022/01/08 02:54:10;;;;;;;1.50;1.40;;;;;;;7.30;44.16;102452.77;1599537;89;21145;-51
2022/01/08 02:56:40;;;;;;;1.80;1.32;;;;;;;7.29;44.20;102448.45;1663735;85;21518;-52
2022/01/08 02:59:07;;;;;;;4.58;1.87;;;;;;;7.31;44.41;102454.53;1701016;83;21109;-51
2022/01/08 03:01:34;;;;;;;4.33;1.70;;;;;;;7.30;44.29;102454.06;1689908;83;21031;-51
2022/01/08 03:04:03;;;;;;;2.08;1.70;;;;;;;7.30;44.29;102447.59;1675647;83;21050;-53
2022/01/08 03:06:30;;;;;;;2.35;1.85;;;;;;;7.32;44.35;102462.73;1686487;82;21531;-50
2022/01/08 03:08:56;;;;;;;1.92;1.70;;;;;;;7.32;44.50;102460.14;1686811;83;21046;-51
2022/01/08 03:11:23;;;;;;;1.65;1.50;;;;;;;7.33;44.61;102454.14;1681237;84;21061;-50
2022/01/08 03:13:50;;;;;;;2.27;1.70;;;;;;;7.32;44.29;102456.26;1698854;82;21063;-51
2022/01/08 03:16:17;;;;;;;2.60;1.82;;;;;;;7.31;44.56;102460.59;1702777;83;21019;-51
2022/01/08 03:18:46;;;;;;;2.98;1.85;;;;;;;7.32;44.84;102454.97;1695087;83;21078;-51
2022/01/08 03:23:49;;;;;;;3.05;2.10;;;;;;;7.31;45.29;102454.12;1641376;86;21102;-52
2022/01/08 03:26:16;;;;;;;3.12;1.80;;;;;;;7.32;45.52;102453.67;1631960;86;21100;-51
2022/01/08 03:28:43;;;;;;;2.52;1.87;;;;;;;7.32;45.64;102455.84;1636594;87;21036;-51
2022/01/08 03:31:11;;;;;;;3.22;2.45;;;;;;;7.33;45.33;102451.55;1629416;87;21044;-51
2022/01/08 03:33:37;;;;;;;3.90;2.08;;;;;;;7.33;45.62;102446.37;1628596;86;21022;-52
2022/01/08 03:36:04;;;;;;;4.00;2.05;;;;;;;7.33;45.63;102458.02;1623546;86;21049;-52
2022/01/08 03:38:31;;;;;;;2.15;1.95;;;;;;;7.34;45.83;102453.28;1637312;86;21049;-51
2022/01/08 03:40:58;;;;;;;2.65;1.95;;;;;;;7.34;45.77;102452.86;1599528;89;21196;-51
2022/01/08 03:43:25;;;;;;;4.60;2.00;;;;;;;7.36;45.75;102456.77;1588319;87;21114;-51
2022/01/08 03:45:51;;;;;;;3.17;2.05;;;;;;;7.37;45.91;102455.52;1591416;89;21123;-51
2022/01/08 03:48:30;;;;;;;3.80;2.02;;;;;;;7.38;45.84;102460.25;1623875;86;21074;-51
2022/01/08 03:50:56;;;;;;;2.70;2.05;;;;;;;7.41;45.87;102459.03;1620370;85;21718;-51
2022/01/08 03:53:23;;;;;;;2.72;1.95;;;;;;;7.42;46.16;102459.47;1623620;86;21534;-51
2022/01/08 03:55:50;;;;;;;2.72;2.30;;;;;;;7.42;46.11;102454.28;1636682;87;21043;-51
2022/01/08 03:58:18;;;;;;;6.08;2.20;;;;;;;7.44;46.33;102456.48;1632012;86;21087;-51
2022/01/08 04:00:46;;;;;;;2.45;1.95;;;;;;;7.47;46.41;102460.84;1618681;86;21568;-51
2022/01/08 04:03:18;;;;;;;3.22;2.12;;;;;;;7.47;46.37;102451.78;1618734;87;21649;-51
2022/01/08 04:05:42;;;;;;;3.02;2.02;;;;;;;7.50;46.02;102455.29;1604102;87;21180;-52
2022/01/08 04:08:10;;;;;;;4.03;1.98;;;;;;;7.50;45.96;102450.56;1612356;88;21047;-51
2022/01/08 04:10:37;;;;;;;4.17;1.90;;;;;;;7.50;45.82;102454.44;1604543;88;21086;-51
2022/01/08 04:13:10;;;;;;;3.12;2.25;;;;;;;7.49;46.04;102461.33;1592422;89;21056;-51
2022/01/08 04:15:36;;;;;;;1.90;1.72;;;;;;;7.49;45.80;102455.27;1587559;88;21061;-52
2022/01/08 04:18:01;;;;;;;5.55;1.90;;;;;;;7.50;45.85;102459.17;1605440;88;21057;-51
2022/01/08 04:20:27;;;;;;;3.40;1.85;;;;;;;7.49;45.69;102453.56;1630849;86;21063;-51
2022/01/08 04:22:55;;;;;;;3.50;2.10;;;;;;;7.51;45.75;102458.34;1656177;86;21033;-51
2022/01/08 04:25:22;;;;;;;3.52;1.87;;;;;;;7.52;46.01;102461.81;1635047;86;21050;-51
2022/01/08 04:27:49;;;;;;;3.10;1.95;;;;;;;7.53;45.68;102463.55;1678072;84;21507;-51
2022/01/08 04:30:16;;;;;;;3.20;1.75;;;;;;;7.53;45.42;102461.84;1630717;86;21534;-51
2022/01/08 04:32:42;;;;;;;6.20;2.27;;;;;;;7.53;45.32;102459.66;1643145;86;21097;-51
2022/01/08 04:35:09;;;;;;;3.52;1.85;;;;;;;7.52;45.28;102454.92;1633978;86;21046;-50
2022/01/08 04:37:36;;;;;;;9.35;2.05;;;;;;;7.54;45.40;102445.47;1676606;84;21082;-53
2022/01/08 04:40:04;;;;;;;2.40;1.70;;;;;;;7.56;45.56;102451.55;1670648;85;21049;-53
2022/01/08 04:42:32;;;;;;;2.83;1.62;;;;;;;7.54;45.68;102455.83;1674682;84;21545;-53
2022/01/08 04:44:59;;;;;;;1.60;1.47;;;;;;;7.54;45.72;102453.23;1675986;84;21077;-53
2022/01/08 04:47:25;;;;;;;4.37;2.05;;;;;;;7.54;45.86;102450.64;1685864;83;21027;-53
2022/01/08 04:49:52;;;;;;;4.22;1.95;;;;;;;7.55;45.79;102452.38;1692893;83;21085;-53
2022/01/08 04:52:18;;;;;;;4.80;2.22;;;;;;;7.55;45.86;102454.08;1702852;83;21059;-53
2022/01/08 04:54:45;;;;;;;3.05;2.20;;;;;;;7.55;45.98;102454.96;1699540;83;21050;-53
2022/01/08 04:57:11;;;;;;;3.08;2.33;;;;;;;7.56;45.76;102456.72;1703568;83;21065;-54
2022/01/08 04:59:38;;;;;;;5.58;2.52;;;;;;;7.57;45.77;102458.45;1681146;83;21122;-53
2022/01/08 05:02:06;;;;;;;3.33;2.25;;;;;;;7.57;45.95;102467.52;1673773;84;21058;-53
2022/01/08 05:04:32;;;;;;;6.72;2.17;;;;;;;7.59;46.16;102472.30;1681147;83;21050;-53
2022/01/08 05:06:59;;;;;;;3.22;2.40;;;;;;;7.59;46.09;102471.42;1698419;83;21499;-53
2022/01/08 05:09:25;;;;;;;4.00;2.72;;;;;;;7.62;46.16;102468.91;1697802;83;21053;-53
2022/01/08 05:11:52;;;;;;;3.05;2.25;;;;;;;7.60;46.15;102472.77;1693311;83;21081;-53
2022/01/08 05:14:18;;;;;;;3.35;3.05;;;;;;;7.63;46.29;102468.92;1694127;83;21076;-53
2022/01/08 05:16:46;;;;;;;4.72;2.92;;;;;;;7.67;46.30;102473.30;1679418;84;21051;-53
2022/01/08 05:19:21;;;;;;;4.03;2.40;;;;;;;7.70;46.66;102460.84;1690450;83;21058;-53
2022/01/08 05:21:41;;;;;;;4.67;3.27;;;;;;;7.70;46.79;102466.89;1681786;83;21050;-53
2022/01/08 05:24:07;;;;;;;4.03;2.70;;;;;;;7.69;46.93;102458.66;1687678;83;21033;-53
2022/01/08 05:26:34;;;;;;;6.75;3.55;;;;;;;7.69;46.76;102456.06;1696657;83;21043;-52
2022/01/08 05:29:00;;;;;;;6.00;3.30;;;;;;;7.69;46.94;102452.18;1697083;83;21023;-53
2022/01/08 05:31:27;;;;;;;7.12;3.37;;;;;;;7.70;47.01;102457.83;1699718;83;20948;-53
2022/01/08 05:33:53;;;;;;;5.75;3.50;;;;;;;7.70;47.27;102447.46;1668227;84;21051;-53
2022/01/08 05:36:21;;;;;;;5.67;3.80;;;;;;;7.69;47.55;102449.59;1685355;83;21083;-53
2022/01/08 05:38:47;;;;;;;6.75;3.83;;;;;;;7.69;47.58;102444.82;1707024;82;21026;-53
2022/01/08 05:41:14;;;;;;;4.92;3.12;;;;;;;7.67;47.47;102443.52;1701840;83;20973;-52
2022/01/08 05:43:40;;;;;;;5.78;3.87;;;;;;;7.67;47.53;102437.03;1695390;83;21541;-52
2022/01/08 05:46:07;;;;;;;7.45;4.00;;;;;;;7.69;47.73;102438.34;1711943;82;21522;-53
2022/01/08 05:48:34;;;;;;;9.15;4.25;;;;;;;7.68;47.77;102440.09;1705967;82;21031;-53
2022/01/08 05:51:01;;;;;;;6.97;3.80;;;;;;;7.68;47.92;102434.91;1704442;83;21051;-52
2022/01/08 05:53:27;;;;;;;7.45;4.03;;;;;;;7.69;48.37;102428.86;1704895;83;21018;-53
2022/01/08 05:55:53;;;;;;;5.60;3.92;;;;;;;7.73;48.42;102429.36;1702238;83;21023;-53
2022/01/08 05:58:20;;;;;;;7.03;3.72;;;;;;;7.76;48.42;102424.66;1679713;82;21571;-53
2022/01/08 06:00:46;;;;;;;5.70;3.90;;;;;;;7.76;48.69;102424.24;1697054;83;21130;-53
2022/01/08 06:03:13;;;;;;;5.62;4.00;;;;;;;7.75;49.09;102422.48;1703409;83;21096;-53
2022/01/08 06:05:39;;;;;;;5.05;3.20;;;;;;;7.76;49.27;102419.06;1693906;83;21057;-53
2022/01/08 06:08:05;;;;;;;7.78;4.40;;;;;;;7.75;49.42;102421.19;1693725;83;21056;-53
2022/01/08 06:10:32;;;;;;;5.87;4.00;;;;;;;7.79;49.37;102413.91;1671726;84;21030;-53
2022/01/08 06:13:00;;;;;;;8.50;4.25;;;;;;;7.83;49.55;102417.45;1698314;83;21077;-53
2022/01/08 06:15:27;;;;;;;8.28;4.55;;;;;;;7.81;49.76;102416.09;1695459;83;21463;-53
2022/01/08 06:17:55;;;;;;;7.83;3.98;;;;;;;7.85;49.80;102424.38;1693793;83;21062;-53
2022/01/08 06:20:22;;;;;;;5.58;3.58;;;;;;;7.89;49.83;102423.56;1702585;83;20996;-53
2022/01/08 06:22:48;;;;;;;7.10;4.42;;;;;;;7.94;49.99;102424.53;1715545;83;21057;-53
2022/01/08 06:25:15;;;;;;;6.67;4.25;;;;;;;7.97;49.95;102429.77;1707415;82;21059;-53
2022/01/08 06:27:42;;;;;;;7.25;4.05;;;;;;;8.00;49.84;102424.62;1686790;83;21118;-53
2022/01/08 06:30:09;;;;;;;8.40;4.05;;;;;;;8.01;49.92;102426.37;1671645;83;21042;-53
2022/01/08 06:32:36;;;;;;;7.17;4.40;;;;;;;8.00;50.04;102422.02;1688120;83;21057;-53
2022/01/08 06:35:03;;;;;;;7.00;4.12;;;;;;;8.00;50.29;102424.62;1694744;83;21086;-53
2022/01/08 06:37:31;;;;;;;6.37;4.75;;;;;;;7.99;50.69;102425.48;1698893;83;21065;-52
2022/01/08 06:39:57;;;;;;;8.05;4.20;;;;;;;8.00;50.91;102422.02;1699240;83;21015;-54
2022/01/08 06:42:23;;;;;;;6.20;3.92;;;;;;;8.01;51.03;102422.91;1692369;83;21091;-53
2022/01/08 06:44:50;;;;;;;5.62;4.12;;;;;;;8.03;51.14;102422.50;1698989;83;21074;-53
2022/01/08 06:47:16;;;;;;;12.33;4.60;;;;;;;8.03;51.19;102420.79;1693253;83;21071;-54
2022/01/08 06:49:43;;;;;;;6.35;3.83;;;;;;;8.03;51.46;102415.61;1697210;83;20971;-52
2022/01/08 06:52:09;;;;;;;6.22;4.60;;;;;;;8.05;51.46;102417.80;1695073;82;21068;-52
2022/01/08 06:54:36;;;;;;;8.10;4.15;;;;;;;8.04;51.58;102410.85;1704198;83;21584;-52
2022/01/08 06:57:04;;;;;;;8.13;3.90;;;;;;;8.06;51.69;102409.16;1703245;83;21586;-53
2022/01/08 06:59:30;;;;;;;6.72;3.37;;;;;;;8.07;51.77;102408.32;1691994;83;21602;-53
2022/01/08 07:01:56;;;;;;;6.55;3.52;;;;;;;8.10;51.71;102403.16;1701061;83;20975;-53
2022/01/08 07:04:23;;;;;;;6.58;3.77;;;;;;;8.12;51.71;102400.16;1707106;83;21068;-53
2022/01/08 07:06:49;;;;;;;13.62;4.12;;;;;;;8.15;51.92;102393.74;1689681;83;21054;-53
2022/01/08 07:09:17;;;;;;;8.30;4.12;;;;;;;8.21;52.06;102394.24;1688181;83;21101;-53
2022/01/08 07:11:43;;;;;;;8.38;4.87;;;;;;;8.23;52.10;102395.13;1709636;82;21047;-53
2022/01/08 07:14:10;;;;;;;6.95;4.17;;;;;;;8.24;52.02;102386.52;1715504;82;21067;-52
2022/01/08 07:16:37;;;;;;;4.62;3.55;;;;;;;8.26;51.93;102385.27;1694170;82;21105;-54
2022/01/08 07:19:03;;;;;;;5.95;4.40;;;;;;;8.26;52.03;102383.97;1700344;83;21530;-51
2022/01/08 07:21:30;;;;;;;7.65;3.67;;;;;;;8.30;52.14;102390.53;1707516;83;21528;-51
2022/01/08 07:23:57;;;;;;;11.73;4.45;;;;;;;8.08;52.87;102397.08;1699239;83;21073;-52
2022/01/08 07:26:24;;;;;;;8.55;5.30;;;;;;;8.00;53.16;102393.51;1712479;82;21053;-53
2022/01/08 07:28:50;;;;;;;6.10;4.37;;;;;;;8.05;53.34;102396.18;1693363;83;21027;-53
2022/01/08 07:31:17;;;;;;;9.58;4.30;;;;;;;8.06;53.31;102397.48;1699019;83;21042;-52
2022/01/08 07:33:49;;;;;;;7.17;4.55;;;;;;;8.36;52.40;102397.50;1677192;83;21368;-52
2022/01/08 07:36:12;;;;;;;7.60;4.75;;;;;;;8.40;52.23;102387.62;1683871;83;21089;-52
2022/01/08 07:38:39;;;;;;;7.87;4.95;;;;;;;8.19;52.79;102390.34;1692625;83;21059;-52
2022/01/08 07:41:05;;;;;;;6.72;5.00;;;;;;;8.44;52.13;102393.29;1700966;83;21049;-53
2022/01/08 07:43:32;;;;;;;9.58;6.33;;;;;;;8.47;51.99;102388.16;1685247;83;21062;-52
2022/01/08 07:45:58;;;;;;;9.58;6.28;;;;;;;8.51;51.76;102402.91;1696951;84;21039;-53
2022/01/08 07:48:27;;;;;;;6.87;5.40;;;;;;;8.54;51.87;102400.33;1679749;84;21064;-52
2022/01/08 07:50:53;;;;;;;9.55;6.03;;;;;;;8.57;51.86;102396.49;1688088;83;21048;-52
2022/01/08 07:53:19;;;;;;;6.65;5.03;;;;;;;8.60;51.70;102397.81;1701568;83;21061;-53
2022/01/08 07:55:46;;;;;;;6.62;4.67;;;;;;;8.64;51.53;102390.51;1690688;83;22596;-52
2022/01/08 07:58:12;;;;;;;8.48;5.20;;;;;;;8.68;51.57;102388.39;1697897;83;21006;-53
2022/01/08 08:00:39;;;;;;;21.70;12.43;;;;;;;8.69;51.62;102383.66;1681388;83;21050;-53
2022/01/08 08:03:06;;;;;;;33.40;17.48;;;;;;;8.72;51.63;102377.20;1681722;84;21014;-53
2022/01/08 08:05:32;;;;;;;14.95;8.98;;;;;;;8.77;51.65;102384.62;1700455;82;21065;-53
2022/01/08 08:07:59;;;;;;;10.30;6.03;;;;;;;8.79;51.42;102380.32;1666033;85;21521;-52
2022/01/08 08:10:27;;;;;;;9.88;5.60;;;;;;;8.79;51.01;102390.70;1676105;84;21102;-52
2022/01/08 08:12:54;;;;;;;8.30;5.67;;;;;;;8.80;51.17;102391.12;1678655;85;21093;-52
2022/01/08 08:15:22;;;;;;;9.73;6.20;;;;;;;8.82;51.50;102388.16;1670187;85;20991;-52
2022/01/08 08:17:49;;;;;;;8.83;5.80;;;;;;;8.78;51.34;102391.53;1696855;83;21107;-52
2022/01/08 08:20:16;;;;;;;10.53;7.03;;;;;;;8.76;51.40;102384.16;1678791;83;21090;-52
2022/01/08 08:22:42;;;;;;;10.03;5.42;;;;;;;8.76;51.35;102386.34;1692878;83;21072;-52
2022/01/08 08:25:10;;;;;;;8.18;6.03;;;;;;;8.78;51.67;102385.05;1696485;83;21059;-52
2022/01/08 08:27:39;;;;;;;5.75;3.55;;;;;;;8.81;51.55;102379.91;1693685;83;21053;-52
2022/01/08 08:30:06;;;;;;;5.75;3.02;;;;;;;8.82;50.73;102379.07;1704415;83;21116;-53
2022/01/08 08:32:34;;;;;;;3.00;2.40;;;;;;;8.84;49.93;102381.25;1685553;83;21030;-51
2022/01/08 08:35:01;;;;;;;4.80;2.62;;;;;;;8.88;48.88;102379.13;1685597;83;21022;-52
2022/01/08 08:37:27;;;;;;;5.33;2.37;;;;;;;8.91;48.45;102373.95;1691306;83;21598;-52
2022/01/08 08:39:54;;;;;;;4.25;2.12;;;;;;;8.92;48.45;102377.02;1675524;84;21570;-52
2022/01/08 08:42:20;;;;;;;3.85;2.08;;;;;;;8.92;48.06;102365.33;1673121;83;21085;-53
2022/01/08 08:44:47;;;;;;;7.60;2.80;;;;;;;8.91;48.06;102362.28;1669295;84;21037;-54
2022/01/08 08:47:14;;;;;;;7.50;3.33;;;;;;;8.89;48.03;102360.09;1656964;85;21087;-52
2022/01/08 08:49:41;;;;;;;6.62;4.08;;;;;;;8.89;49.53;102358.80;1683227;83;21049;-53
2022/01/08 08:52:08;;;;;;;5.72;3.02;;;;;;;8.90;50.33;102344.98;1667629;85;21030;-52
2022/01/08 08:54:35;;;;;;;6.03;3.12;;;;;;;8.92;50.75;102344.11;1698150;83;21068;-53
2022/01/08 08:57:02;;;;;;;7.40;3.95;;;;;;;8.94;50.68;102344.16;1694885;83;21058;-53
2022/01/08 08:59:29;;;;;;;12.05;3.72;;;;;;;8.95;50.98;102335.07;1682514;84;21037;-52
2022/01/08 09:01:56;;;;;;;5.50;3.77;;;;;;;8.99;50.80;102330.77;1706189;83;21058;-52
2022/01/08 09:04:23;;;;;;;8.98;4.25;;;;;;;9.01;51.05;102330.36;1679947;83;21007;-52
2022/01/08 09:06:50;;;;;;;6.60;4.10;;;;;;;9.03;51.45;102325.20;1698694;83;21002;-52
2022/01/08 09:09:16;;;;;;;7.65;3.83;;;;;;;9.06;51.71;102324.80;1698493;83;21014;-53
2022/01/08 09:11:42;;;;;;;9.48;4.15;;;;;;;9.09;51.59;102324.80;1691960;83;21049;-52
2022/01/08 09:14:09;;;;;;;7.30;4.65;;;;;;;9.11;51.60;102325.69;1694928;83;20999;-52
2022/01/08 09:16:35;;;;;;;8.75;4.40;;;;;;;9.13;51.87;102320.08;1707570;83;21161;-52
2022/01/08 09:19:04;;;;;;;11.05;4.47;;;;;;;9.17;51.68;102317.95;1702985;83;21042;-52
2022/01/08 09:21:30;;;;;;;9.25;4.33;;;;;;;9.19;51.69;102305.84;1696853;83;21120;-52
2022/01/08 09:23:57;;;;;;;7.67;4.30;;;;;;;9.23;51.58;102299.85;1692767;83;21084;-52
2022/01/08 09:26:24;;;;;;;8.98;4.70;;;;;;;9.25;51.63;102293.36;1682151;83;21050;-53
2022/01/08 09:28:50;;;;;;;6.72;4.55;;;;;;;9.26;51.72;102294.66;1676493;83;21027;-53
2022/01/08 09:31:18;;;;;;;7.25;4.25;;;;;;;9.28;51.50;102287.75;1651876;85;21060;-53
2022/01/08 09:33:46;;;;;;;8.35;5.55;;;;;;;9.27;51.51;102286.03;1705118;83;21097;-53
2022/01/08 09:36:12;;;;;;;9.40;4.83;;;;;;;9.25;51.70;102282.55;1691730;83;20991;-53
2022/01/08 09:38:38;;;;;;;9.95;4.85;;;;;;;9.21;51.61;102271.67;1646347;85;21041;-53
2022/01/08 09:41:06;;;;;;;8.30;4.62;;;;;;;9.18;51.66;102279.45;1667882;85;21070;-52
2022/01/08 09:43:33;;;;;;;14.60;5.12;;;;;;;9.15;51.92;102273.38;1709389;83;21021;-52
2022/01/08 09:46:01;;;;;;;8.03;4.35;;;;;;;9.11;51.99;102265.96;1691199;83;21594;-52
2022/01/08 09:48:27;;;;;;;10.05;4.60;;;;;;;9.10;51.85;102266.84;1678268;83;21562;-53
2022/01/08 09:50:54;;;;;;;9.40;5.08;;;;;;;9.10;51.89;102259.47;1706645;83;21056;-52
2022/01/08 09:53:21;;;;;;;6.72;4.75;;;;;;;9.09;52.09;102253.84;1681935;83;21047;-52
2022/01/08 09:55:48;;;;;;;10.18;5.33;;;;;;;9.09;52.13;102244.31;1693440;83;21015;-52
2022/01/08 09:58:14;;;;;;;7.90;4.65;;;;;;;9.10;52.47;102249.08;1689459;83;21042;-53
2022/01/08 10:00:41;;;;;;;10.45;5.22;;;;;;;8.80;53.48;102245.78;1699314;83;21097;-52
2022/01/08 10:03:29;;;;;;;7.67;4.65;;;;;;;8.77;53.80;102234.09;1696303;83;21050;-53
2022/01/08 10:06:00;;;;;;;8.13;5.17;;;;;;;8.78;53.82;102224.13;1689163;83;21080;-53
2022/01/08 10:08:29;;;;;;;9.23;4.87;;;;;;;8.81;53.98;102224.17;1687133;83;21022;-53
2022/01/08 10:11:06;;;;;;;12.88;5.55;;;;;;;8.82;54.16;102218.14;1687085;83;21061;-52
2022/01/08 10:13:38;;;;;;;9.30;5.28;;;;;;;8.84;54.26;102216.43;1691807;83;21038;-51
2022/01/08 10:19:02;;;;;;;10.95;5.65;;;;;;;8.88;54.36;102210.41;1642539;85;21069;-53
2022/01/08 10:21:37;;;;;;;7.85;5.37;;;;;;;8.89;54.51;102201.75;1643903;86;21034;-53
2022/01/08 10:24:08;;;;;;;9.20;5.40;;;;;;;8.90;54.38;102198.31;1606099;88;21618;-53
2022/01/08 10:26:40;;;;;;;10.48;6.05;;;;;;;8.91;54.38;102199.61;1566763;90;21261;-53
2022/01/08 10:29:14;;;;;;;8.70;5.05;;;;;;;8.94;54.43;102196.17;1554308;91;21057;-53
2022/01/08 10:31:45;;;;;;;7.80;5.15;;;;;;;8.95;54.52;102188.81;1583798;90;21122;-53
2022/01/08 10:34:14;;;;;;;10.30;5.42;;;;;;;8.94;54.61;102180.15;1560373;91;21606;-53
2022/01/08 10:36:44;;;;;;;10.65;5.67;;;;;;;8.98;54.62;102178.47;1562443;91;21107;-53
2022/01/08 10:42:10;;;;;;;13.03;5.72;;;;;;;8.99;54.67;102165.91;1487416;94;21086;-54
2022/01/08 10:44:37;;;;;;;6.85;5.05;;;;;;;8.98;54.65;102158.55;1505534;93;21135;-54
2022/01/08 10:47:13;;;;;;;11.40;5.33;;;;;;;9.00;54.71;102155.98;1545909;91;21111;-54
2022/01/08 10:50:00;;;;;;;10.78;5.67;;;;;;;9.01;54.66;102156.41;1443149;98;21152;-53
2022/01/08 10:52:27;;;;;;;10.70;5.00;;;;;;;9.03;54.63;102153.39;1482304;94;21144;-53
2022/01/08 10:54:59;;;;;;;10.45;5.53;;;;;;;9.04;54.51;102151.25;1467272;96;21218;-52
2022/01/08 10:57:37;;;;;;;8.30;4.85;;;;;;;9.03;54.62;102144.30;1455604;97;21204;-52
2022/01/08 11:00:06;;;;;;;7.85;5.80;;;;;;;9.03;54.55;102139.56;1454268;96;21248;-53
2022/01/08 11:02:34;;;;;;;9.68;6.15;;;;;;;9.01;54.69;102129.14;1448491;96;21130;-52
2022/01/08 11:05:07;;;;;;;12.75;6.03;;;;;;;9.00;54.81;102130.86;1451810;97;21183;-54
2022/01/08 11:07:35;;;;;;;9.13;5.50;;;;;;;9.00;54.88;102130.02;1452652;97;21105;-53
2022/01/08 11:10:07;;;;;;;8.68;5.97;;;;;;;9.01;54.70;102131.73;1460957;96;21160;-53
2022/01/08 11:17:55;;;;;;;9.83;6.15;;;;;;;9.03;54.80;102127.42;1327510;106;21205;-52
2022/01/08 11:20:30;;;;;;;11.70;6.03;;;;;;;9.02;54.64;102125.70;1355508;101;21233;-53
2022/01/08 11:22:58;;;;;;;8.40;4.60;;;;;;;9.00;54.74;102124.83;1397654;101;21206;-53
2022/01/08 11:25:36;;;;;;;14.83;6.10;;;;;;;9.00;54.76;102122.23;1406211;100;21121;-53
2022/01/08 11:28:12;;;;;;;10.72;5.78;;;;;;;9.02;54.87;102116.62;1400194;99;21144;-53
2022/01/08 11:30:42;;;;;;;9.80;5.92;;;;;;;9.05;54.86;102117.91;1414676;97;21109;-53
2022/01/08 11:33:18;;;;;;;10.32;5.60;;;;;;;9.05;54.88;102117.91;1453439;98;21174;-52
2022/01/08 11:35:46;;;;;;;8.13;4.80;;;;;;;9.07;54.79;102112.30;1452911;97;21137;-53
2022/01/08 11:38:15;;;;;;;9.95;4.90;;;;;;;9.08;54.75;102099.77;1426202;99;21089;-53
2022/01/08 11:40:44;;;;;;;10.70;5.03;;;;;;;9.07;54.70;102098.02;1497729;94;21565;-53
2022/01/08 11:43:14;;;;;;;10.55;5.35;;;;;;;9.08;54.84;102097.17;1507576;94;21125;-53
2022/01/08 11:45:53;;;;;;;6.95;4.80;;;;;;;9.09;54.94;102093.70;1495917;94;21086;-54
2022/01/08 11:48:33;;;;;;;8.30;4.97;;;;;;;9.07;55.00;102085.03;1497797;94;21638;-53
2022/01/08 11:51:01;;;;;;;13.35;5.58;;;;;;;9.09;55.18;102083.31;1487844;94;21140;-53
2022/01/08 11:53:30;;;;;;;10.23;4.97;;;;;;;9.10;55.03;102085.07;1502388;94;21656;-53
2022/01/08 11:56:06;;;;;;;7.83;5.22;;;;;;;9.11;55.04;102076.86;1527908;93;21065;-53
2022/01/08 11:58:36;;;;;;;9.48;5.47;;;;;;;9.11;55.07;102079.00;1524867;92;21186;-52
2022/01/08 12:01:06;;;;;;;8.78;4.60;;;;;;;9.13;54.94;102078.58;1527344;92;21759;-53
2022/01/08 12:03:41;;;;;;;12.28;5.10;;;;;;;9.13;54.92;102073.38;1522759;93;21161;-52
2022/01/08 12:09:19;;;;;;;11.08;4.72;;;;;;;9.10;54.94;102068.19;1555394;87;21137;-53